sensor_id;sensor_type;location;lat;lon;timestamp;pressure;altitude;pressure_sealevel;temperature;humidity
71772;BME280;59606;52.138;5.424;2022-12-07T00:01:33;101995.47;;;3.67;98.44
71772;BME280;59606;52.138;5.424;2022-12-07T00:04:01;101997.19;;;3.68;98.41
71772;BME280;59606;52.138;5.424;2022-12-07T00:06:33;101996.31;;;3.68;98.50
71772;BME280;59606;52.138;5.424;2022-12-07T00:09:00;101993.75;;;3.69;99.54
71772;BME280;59606;52.138;5.424;2022-12-07T00:11:27;101995.47;;;3.67;99.20
71772;BME280;59606;52.138;5.424;2022-12-07T00:13:58;101998.06;;;3.64;99.38
71772;BME280;59606;52.138;5.424;2022-12-07T00:16:27;101998.94;;;3.65;98.92
71772;BME280;59606;52.138;5.424;2022-12-07T00:18:55;101992.94;;;3.66;99.15
71772;BME280;59606;52.138;5.424;2022-12-07T00:21:30;101994.66;;;3.61;98.97
71772;BME280;59606;52.138;5.424;2022-12-07T00:23:57;101993.84;;;3.57;99.28
71772;BME280;59606;52.138;5.424;2022-12-07T00:26:26;101987.84;;;3.53;98.95
71772;BME280;59606;52.138;5.424;2022-12-07T00:29:00;101987.00;;;3.53;98.90
71772;BME280;59606;52.138;5.424;2022-12-07T00:31:30;101981.03;;;3.49;99.33
71772;BME280;59606;52.138;5.424;2022-12-07T00:33:59;101979.25;;;3.51;99.26
71772;BME280;59606;52.138;5.424;2022-12-07T00:36:25;101970.69;;;3.52;99.60
71772;BME280;59606;52.138;5.424;2022-12-07T00:38:54;101975.84;;;3.52;99.96
71772;BME280;59606;52.138;5.424;2022-12-07T00:41:23;101974.97;;;3.52;99.83
71772;BME280;59606;52.138;5.424;2022-12-07T00:43:50;101971.56;;;3.50;99.42
71772;BME280;59606;52.138;5.424;2022-12-07T00:46:18;101966.44;;;3.47;99.21
71772;BME280;59606;52.138;5.424;2022-12-07T00:48:45;101966.44;;;3.44;99.29
71772;BME280;59606;52.138;5.424;2022-12-07T00:51:13;101971.63;;;3.41;99.23
71772;BME280;59606;52.138;5.424;2022-12-07T00:53:40;101973.34;;;3.40;99.37
71772;BME280;59606;52.138;5.424;2022-12-07T00:56:15;101963.94;;;3.36;98.94
71772;BME280;59606;52.138;5.424;2022-12-07T00:58:43;101960.53;;;3.31;99.28
71772;BME280;59606;52.138;5.424;2022-12-07T01:01:10;101962.25;;;3.27;98.81
71772;BME280;59606;52.138;5.424;2022-12-07T01:03:38;101958.00;;;3.26;99.56
71772;BME280;59606;52.138;5.424;2022-12-07T01:06:05;101966.53;;;3.28;99.76
71772;BME280;59606;52.138;5.424;2022-12-07T01:08:32;101964.84;;;3.29;99.90
71772;BME280;59606;52.138;5.424;2022-12-07T01:11:00;101955.41;;;3.29;99.54
71772;BME280;59606;52.138;5.424;2022-12-07T01:13:28;101962.25;;;3.30;99.87
71772;BME280;59606;52.138;5.424;2022-12-07T01:15:59;101958.81;;;3.30;100.00
71772;BME280;59606;52.138;5.424;2022-12-07T01:18:30;101959.66;;;3.34;99.61
71772;BME280;59606;52.138;5.424;2022-12-07T01:21:05;101961.34;;;3.35;99.87
71772;BME280;59606;52.138;5.424;2022-12-07T01:23:33;101959.66;;;3.34;100.00
71772;BME280;59606;52.138;5.424;2022-12-07T01:26:03;101969.09;;;3.33;99.99
71772;BME280;59606;52.138;5.424;2022-12-07T01:28:31;101969.13;;;3.30;99.65
71772;BME280;59606;52.138;5.424;2022-12-07T01:33:27;101964.00;;;3.25;99.32
71772;BME280;59606;52.138;5.424;2022-12-07T01:35:54;101967.44;;;3.21;99.24
71772;BME280;59606;52.138;5.424;2022-12-07T01:38:20;101971.75;;;3.21;99.28
71772;BME280;59606;52.138;5.424;2022-12-07T01:40:54;101970.03;;;3.20;99.87
71772;BME280;59606;52.138;5.424;2022-12-07T01:43:22;101964.06;;;3.16;99.66
71772;BME280;59606;52.138;5.424;2022-12-07T01:45:49;101963.22;;;3.13;99.55
71772;BME280;59606;52.138;5.424;2022-12-07T01:48:20;101967.53;;;3.11;99.25
71772;BME280;59606;52.138;5.424;2022-12-07T01:50:49;101959.81;;;3.07;98.92
71772;BME280;59606;52.138;5.424;2022-12-07T01:53:17;101977.81;;;3.11;99.61
71772;BME280;59606;52.138;5.424;2022-12-07T01:55:46;101969.28;;;3.09;99.32
71772;BME280;59606;52.138;5.424;2022-12-07T01:58:14;101970.13;;;3.04;99.41
71772;BME280;59606;52.138;5.424;2022-12-07T02:00:41;101976.13;;;3.05;99.25
71772;BME280;59606;52.138;5.424;2022-12-07T02:03:27;101967.53;;;3.04;99.60
71772;BME280;59606;52.138;5.424;2022-12-07T02:05:56;101970.13;;;3.06;99.77
71772;BME280;59606;52.138;5.424;2022-12-07T02:08:25;101972.69;;;3.07;99.25
71772;BME280;59606;52.138;5.424;2022-12-07T02:10:52;101965.81;;;3.08;99.13
71772;BME280;59606;52.138;5.424;2022-12-07T02:13:23;101967.56;;;3.06;99.19
71772;BME280;59606;52.138;5.424;2022-12-07T02:21:50;101958.97;;;3.07;99.19
71772;BME280;59606;52.138;5.424;2022-12-07T02:27:38;101958.06;;;3.11;99.41
71772;BME280;59606;52.138;5.424;2022-12-07T02:30:11;101959.78;;;3.11;99.68
71772;BME280;59606;52.138;5.424;2022-12-07T02:32:44;101961.50;;;3.13;99.47
71772;BME280;59606;52.138;5.424;2022-12-07T02:35:21;101958.91;;;3.15;99.34
71772;BME280;59606;52.138;5.424;2022-12-07T02:38:00;101953.75;;;3.16;99.43
71772;BME280;59606;52.138;5.424;2022-12-07T02:40:36;101952.03;;;3.15;99.30
71772;BME280;59606;52.138;5.424;2022-12-07T02:43:20;101959.75;;;3.17;99.81
71772;BME280;59606;52.138;5.424;2022-12-07T02:45:51;101946.88;;;3.17;99.22
71772;BME280;59606;52.138;5.424;2022-12-07T02:48:19;101948.63;;;3.16;99.93
71772;BME280;59606;52.138;5.424;2022-12-07T02:50:51;101952.03;;;3.17;99.46
71772;BME280;59606;52.138;5.424;2022-12-07T02:53:38;101955.44;;;3.20;99.71
71772;BME280;59606;52.138;5.424;2022-12-07T02:56:28;101954.56;;;3.21;99.57
71772;BME280;59606;52.138;5.424;2022-12-07T02:59:26;101953.72;;;3.22;99.43
71772;BME280;59606;52.138;5.424;2022-12-07T03:07:46;101959.72;;;3.21;99.97
71772;BME280;59606;52.138;5.424;2022-12-07T03:13:24;101947.72;;;3.23;100.00
71772;BME280;59606;52.138;5.424;2022-12-07T03:16:00;101945.13;;;3.26;100.00
71772;BME280;59606;52.138;5.424;2022-12-07T03:18:32;101950.25;;;3.28;100.00
71772;BME280;59606;52.138;5.424;2022-12-07T03:21:05;101941.66;;;3.29;99.97
71772;BME280;59606;52.138;5.424;2022-12-07T03:23:34;101951.09;;;3.28;99.84
71772;BME280;59606;52.138;5.424;2022-12-07T03:26:04;101945.97;;;3.27;100.00
71772;BME280;59606;52.138;5.424;2022-12-07T03:28:35;101950.25;;;3.25;99.94
71772;BME280;59606;52.138;5.424;2022-12-07T03:31:28;101949.41;;;3.26;99.83
71772;BME280;59606;52.138;5.424;2022-12-07T03:34:05;101945.09;;;3.28;99.64
71772;BME280;59606;52.138;5.424;2022-12-07T03:41:45;101940.00;;;3.17;99.46
71772;BME280;59606;52.138;5.424;2022-12-07T03:44:12;101936.59;;;3.15;100.00
71772;BME280;59606;52.138;5.424;2022-12-07T03:47:12;101933.19;;;3.10;99.58
71772;BME280;59606;52.138;5.424;2022-12-07T03:49:42;101929.78;;;3.10;99.93
71772;BME280;59606;52.138;5.424;2022-12-07T03:52:17;101931.53;;;3.06;99.52
71772;BME280;59606;52.138;5.424;2022-12-07T03:54:58;101932.34;;;3.05;99.45
71772;BME280;59606;52.138;5.424;2022-12-07T03:57:27;101939.22;;;3.04;99.51
71772;BME280;59606;52.138;5.424;2022-12-07T03:59:56;101932.41;;;3.02;99.64
71772;BME280;59606;52.138;5.424;2022-12-07T04:02:24;101928.97;;;2.98;99.98
71772;BME280;59606;52.138;5.424;2022-12-07T04:04:52;101940.13;;;3.00;99.62
71772;BME280;59606;52.138;5.424;2022-12-07T04:07:19;101932.38;;;3.03;100.00
71772;BME280;59606;52.138;5.424;2022-12-07T04:09:45;101929.78;;;3.05;100.00
71772;BME280;59606;52.138;5.424;2022-12-07T04:12:12;101927.22;;;3.05;99.89
71772;BME280;59606;52.138;5.424;2022-12-07T04:14:38;101921.19;;;3.09;100.00
71772;BME280;59606;52.138;5.424;2022-12-07T04:17:05;101922.06;;;3.10;100.00
71772;BME280;59606;52.138;5.424;2022-12-07T04:19:33;101910.06;;;3.09;100.00
71772;BME280;59606;52.138;5.424;2022-12-07T04:22:01;101917.78;;;3.09;100.00
71772;BME280;59606;52.138;5.424;2022-12-07T04:24:28;101915.19;;;3.07;99.81
71772;BME280;59606;52.138;5.424;2022-12-07T04:26:55;101918.63;;;3.04;100.00
71772;BME280;59606;52.138;5.424;2022-12-07T04:29:22;101920.38;;;3.01;99.92
71772;BME280;59606;52.138;5.424;2022-12-07T04:31:48;101922.97;;;2.98;100.00
71772;BME280;59606;52.138;5.424;2022-12-07T04:34:16;101923.88;;;2.95;100.00
71772;BME280;59606;52.138;5.424;2022-12-07T04:36:43;101924.69;;;2.94;100.00
71772;BME280;59606;52.138;5.424;2022-12-07T04:39:19;101919.59;;;2.93;99.73
71772;BME280;59606;52.138;5.424;2022-12-07T04:41:45;101915.28;;;2.93;100.00
71772;BME280;59606;52.138;5.424;2022-12-07T04:44:13;101916.13;;;2.95;100.00
71772;BME280;59606;52.138;5.424;2022-12-07T04:46:41;101927.28;;;2.94;100.00
71772;BME280;59606;52.138;5.424;2022-12-07T04:49:08;101922.16;;;2.93;99.86
71772;BME280;59606;52.138;5.424;2022-12-07T04:51:34;101921.28;;;2.94;100.00
71772;BME280;59606;52.138;5.424;2022-12-07T04:54:01;101921.28;;;2.95;100.00
71772;BME280;59606;52.138;5.424;2022-12-07T04:56:27;101922.97;;;2.98;100.00
71772;BME280;59606;52.138;5.424;2022-12-07T04:58:54;101920.38;;;3.01;100.00
71772;BME280;59606;52.138;5.424;2022-12-07T05:01:22;101915.22;;;3.01;100.00
71772;BME280;59606;52.138;5.424;2022-12-07T05:03:49;101906.66;;;3.02;100.00
71772;BME280;59606;52.138;5.424;2022-12-07T05:06:16;101910.09;;;3.01;100.00
71772;BME280;59606;52.138;5.424;2022-12-07T05:08:43;101910.94;;;2.98;100.00
71772;BME280;59606;52.138;5.424;2022-12-07T05:11:11;101899.81;;;2.95;100.00
71772;BME280;59606;52.138;5.424;2022-12-07T05:13:56;101896.44;;;2.87;100.00
71772;BME280;59606;52.138;5.424;2022-12-07T05:16:23;101903.31;;;2.84;100.00
71772;BME280;59606;52.138;5.424;2022-12-07T05:18:50;101902.47;;;2.81;100.00
71772;BME280;59606;52.138;5.424;2022-12-07T05:21:17;101905.09;;;2.76;100.00
71772;BME280;59606;52.138;5.424;2022-12-07T05:23:43;101902.53;;;2.70;99.91
71772;BME280;59606;52.138;5.424;2022-12-07T05:26:10;101904.25;;;2.68;99.75
71772;BME280;59606;52.138;5.424;2022-12-07T05:28:36;101912.88;;;2.66;99.91
71772;BME280;59606;52.138;5.424;2022-12-07T05:31:03;101907.72;;;2.64;99.76
71772;BME280;59606;52.138;5.424;2022-12-07T05:33:29;101899.16;;;2.60;99.62
71772;BME280;59606;52.138;5.424;2022-12-07T05:35:56;101903.47;;;2.57;99.35
71772;BME280;59606;52.138;5.424;2022-12-07T05:38:22;101905.19;;;2.55;99.52
71772;BME280;59606;52.138;5.424;2022-12-07T05:40:49;101902.63;;;2.53;99.73
71772;BME280;59606;52.138;5.424;2022-12-07T05:43:15;101905.19;;;2.53;99.37
71772;BME280;59606;52.138;5.424;2022-12-07T05:45:42;101912.03;;;2.51;99.85
71772;BME280;59606;52.138;5.424;2022-12-07T05:48:08;101907.78;;;2.50;99.39
71772;BME280;59606;52.138;5.424;2022-12-07T05:50:34;101911.19;;;2.51;99.53
71772;BME280;59606;52.138;5.424;2022-12-07T05:53:01;101902.66;;;2.49;99.58
71772;BME280;59606;52.138;5.424;2022-12-07T05:55:27;101909.50;;;2.50;99.44
71772;BME280;59606;52.138;5.424;2022-12-07T05:57:54;101909.47;;;2.51;99.75
71772;BME280;59606;52.138;5.424;2022-12-07T06:00:39;101908.63;;;2.52;99.71
71772;BME280;59606;52.138;5.424;2022-12-07T06:03:05;101909.47;;;2.51;99.91
71772;BME280;59606;52.138;5.424;2022-12-07T06:05:32;101911.19;;;2.51;99.67
71772;BME280;59606;52.138;5.424;2022-12-07T06:07:58;101906.94;;;2.50;99.19
71772;BME280;59606;52.138;5.424;2022-12-07T06:10:31;101908.66;;;2.46;99.54
71772;BME280;59606;52.138;5.424;2022-12-07T06:12:57;101903.50;;;2.48;99.43
71772;BME280;59606;52.138;5.424;2022-12-07T06:15:24;101907.81;;;2.46;99.33
71772;BME280;59606;52.138;5.424;2022-12-07T06:17:50;101910.38;;;2.46;99.47
71772;BME280;59606;52.138;5.424;2022-12-07T06:20:17;101910.38;;;2.46;99.60
71772;BME280;59606;52.138;5.424;2022-12-07T06:22:43;101909.53;;;2.48;99.95
71772;BME280;59606;52.138;5.424;2022-12-07T06:25:10;101912.03;;;2.51;100.00
71772;BME280;59606;52.138;5.424;2022-12-07T06:27:36;101913.75;;;2.54;100.00
71772;BME280;59606;52.138;5.424;2022-12-07T06:30:03;101911.19;;;2.55;99.89
71772;BME280;59606;52.138;5.424;2022-12-07T06:32:33;101911.19;;;2.55;99.66
71772;BME280;59606;52.138;5.424;2022-12-07T06:35:00;101914.63;;;2.56;99.79
71772;BME280;59606;52.138;5.424;2022-12-07T06:37:26;101904.31;;;2.54;99.95
71772;BME280;59606;52.138;5.424;2022-12-07T06:39:53;101906.03;;;2.57;99.92
71772;BME280;59606;52.138;5.424;2022-12-07T06:42:19;101911.19;;;2.57;99.89
71772;BME280;59606;52.138;5.424;2022-12-07T06:44:46;101920.59;;;2.58;99.64
71772;BME280;59606;52.138;5.424;2022-12-07T06:47:12;101914.59;;;2.54;99.40
71772;BME280;59606;52.138;5.424;2022-12-07T06:49:59;101913.78;;;2.49;99.54
71772;BME280;59606;52.138;5.424;2022-12-07T06:52:26;101908.66;;;2.45;99.80
71772;BME280;59606;52.138;5.424;2022-12-07T06:54:52;101913.84;;;2.42;99.92
71772;BME280;59606;52.138;5.424;2022-12-07T06:57:19;101913.84;;;2.39;99.78
71772;BME280;59606;52.138;5.424;2022-12-07T06:59:46;101909.56;;;2.36;99.58
71772;BME280;59606;52.138;5.424;2022-12-07T07:02:12;101915.59;;;2.29;99.39
71772;BME280;59606;52.138;5.424;2022-12-07T07:04:39;101911.31;;;2.25;99.58
71772;BME280;59606;52.138;5.424;2022-12-07T07:07:06;101907.88;;;2.21;99.43
71772;BME280;59606;52.138;5.424;2022-12-07T07:09:32;101907.03;;;2.18;99.99
71772;BME280;59606;52.138;5.424;2022-12-07T07:11:59;101916.47;;;2.17;99.42
71772;BME280;59606;52.138;5.424;2022-12-07T07:14:25;101915.63;;;2.15;99.30
71772;BME280;59606;52.138;5.424;2022-12-07T07:16:52;101914.75;;;2.15;99.63
71772;BME280;59606;52.138;5.424;2022-12-07T07:19:18;101915.63;;;2.12;99.39
71772;BME280;59606;52.138;5.424;2022-12-07T07:21:45;101926.78;;;2.09;99.21
71772;BME280;59606;52.138;5.424;2022-12-07T07:24:11;101923.34;;;2.06;99.57
71772;BME280;59606;52.138;5.424;2022-12-07T07:26:38;101923.34;;;2.03;99.49
71772;BME280;59606;52.138;5.424;2022-12-07T07:29:04;101917.34;;;2.01;99.47
71772;BME280;59606;52.138;5.424;2022-12-07T07:31:31;101916.50;;;1.99;99.11
71772;BME280;59606;52.138;5.424;2022-12-07T07:33:57;101913.94;;;1.96;99.53
71772;BME280;59606;52.138;5.424;2022-12-07T07:36:23;101918.22;;;1.94;99.31
71772;BME280;59606;52.138;5.424;2022-12-07T07:38:50;101911.38;;;1.91;99.09
71772;BME280;59606;52.138;5.424;2022-12-07T07:41:16;101916.53;;;1.89;99.38
71772;BME280;59606;52.138;5.424;2022-12-07T07:43:43;101920.81;;;1.86;99.22
71772;BME280;59606;52.138;5.424;2022-12-07T07:46:09;101923.38;;;1.83;99.21
71772;BME280;59606;52.138;5.424;2022-12-07T07:48:36;101913.97;;;1.80;98.91
71772;BME280;59606;52.138;5.424;2022-12-07T07:51:07;101913.09;;;1.77;99.16
71772;BME280;59606;52.138;5.424;2022-12-07T07:53:33;101913.97;;;1.77;99.10
71772;BME280;59606;52.138;5.424;2022-12-07T07:56:00;101916.53;;;1.80;99.32
71772;BME280;59606;52.138;5.424;2022-12-07T07:58:27;101921.69;;;1.82;99.53
71772;BME280;59606;52.138;5.424;2022-12-07T08:00:53;101916.53;;;1.82;99.38
71772;BME280;59606;52.138;5.424;2022-12-07T08:03:20;101926.81;;;1.85;99.54
71772;BME280;59606;52.138;5.424;2022-12-07T08:05:46;101927.66;;;1.87;99.27
71772;BME280;59606;52.138;5.424;2022-12-07T08:08:13;101932.81;;;1.88;99.45
71772;BME280;59606;52.138;5.424;2022-12-07T08:10:39;101934.50;;;1.91;99.13
71772;BME280;59606;52.138;5.424;2022-12-07T08:13:06;101923.38;;;1.94;99.63
71772;BME280;59606;52.138;5.424;2022-12-07T08:15:44;101930.19;;;1.98;99.55
71772;BME280;59606;52.138;5.424;2022-12-07T08:18:11;101932.78;;;2.01;99.52
71772;BME280;59606;52.138;5.424;2022-12-07T08:20:39;101931.03;;;2.04;99.64
71772;BME280;59606;52.138;5.424;2022-12-07T08:23:06;101942.16;;;2.11;99.89
71772;BME280;59606;52.138;5.424;2022-12-07T08:25:33;101942.16;;;2.14;99.68
71772;BME280;59606;52.138;5.424;2022-12-07T08:28:00;101942.16;;;2.26;100.00
71772;BME280;59606;52.138;5.424;2022-12-07T08:30:28;101935.25;;;2.41;100.00
71772;BME280;59606;52.138;5.424;2022-12-07T08:32:54;101933.50;;;2.50;100.00
71772;BME280;59606;52.138;5.424;2022-12-07T08:35:21;101925.75;;;2.59;100.00
71772;BME280;59606;52.138;5.424;2022-12-07T08:37:47;101932.56;;;2.67;100.00
71772;BME280;59606;52.138;5.424;2022-12-07T08:40:14;101938.53;;;2.79;100.00
71772;BME280;59606;52.138;5.424;2022-12-07T08:42:42;101927.31;;;2.88;100.00
71772;BME280;59606;52.138;5.424;2022-12-07T08:45:12;101929.84;;;2.94;100.00
71772;BME280;59606;52.138;5.424;2022-12-07T08:48:06;101938.41;;;3.02;100.00
71772;BME280;59606;52.138;5.424;2022-12-07T08:50:36;101930.66;;;3.07;100.00
71772;BME280;59606;52.138;5.424;2022-12-07T08:53:04;101928.06;;;3.10;100.00
71772;BME280;59606;52.138;5.424;2022-12-07T08:55:33;101925.44;;;3.12;100.00
71772;BME280;59606;52.138;5.424;2022-12-07T08:58:02;101922.88;;;3.13;99.95
71772;BME280;59606;52.138;5.424;2022-12-07T09:00:28;101928.00;;;3.15;99.97
71772;BME280;59606;52.138;5.424;2022-12-07T09:02:55;101926.28;;;3.15;99.75
71772;BME280;59606;52.138;5.424;2022-12-07T09:05:22;101930.59;;;3.16;99.77
71772;BME280;59606;52.138;5.424;2022-12-07T09:07:51;101934.00;;;3.18;99.50
71772;BME280;59606;52.138;5.424;2022-12-07T09:10:20;101928.00;;;3.19;99.75
71772;BME280;59606;52.138;5.424;2022-12-07T09:12:47;101929.69;;;3.20;99.55
71772;BME280;59606;52.138;5.424;2022-12-07T09:15:13;101930.56;;;3.22;99.86
71772;BME280;59606;52.138;5.424;2022-12-07T09:17:40;101932.25;;;3.26;99.88
71772;BME280;59606;52.138;5.424;2022-12-07T09:20:07;101924.47;;;3.31;99.63
71772;BME280;59606;52.138;5.424;2022-12-07T09:22:33;101927.03;;;3.36;99.56
71772;BME280;59606;52.138;5.424;2022-12-07T09:25:00;101935.56;;;3.42;100.00
71772;BME280;59606;52.138;5.424;2022-12-07T09:27:28;101939.75;;;3.54;100.00
71772;BME280;59606;52.138;5.424;2022-12-07T09:29:54;101938.84;;;3.63;99.75
71772;BME280;59606;52.138;5.424;2022-12-07T09:32:21;101939.63;;;3.68;100.00
71772;BME280;59606;52.138;5.424;2022-12-07T09:34:48;101939.63;;;3.72;100.00
71772;BME280;59606;52.138;5.424;2022-12-07T09:37:14;101930.13;;;3.76;99.52
71772;BME280;59606;52.138;5.424;2022-12-07T09:39:41;101933.53;;;3.80;99.74
71772;BME280;59606;52.138;5.424;2022-12-07T09:42:36;101931.81;;;3.80;98.72
71772;BME280;59606;52.138;5.424;2022-12-07T09:45:06;101932.63;;;3.82;99.13
71772;BME280;59606;52.138;5.424;2022-12-07T09:47:33;101921.44;;;3.86;98.91
71772;BME280;59606;52.138;5.424;2022-12-07T09:50:07;101927.41;;;3.88;98.88
71772;BME280;59606;52.138;5.424;2022-12-07T09:52:38;101923.97;;;3.91;98.17
71772;BME280;59606;52.138;5.424;2022-12-07T09:55:24;101929.97;;;3.93;98.24
71772;BME280;59606;52.138;5.424;2022-12-07T09:57:53;101923.06;;;3.96;98.23
71772;BME280;59606;52.138;5.424;2022-12-07T10:00:21;101924.72;;;3.99;98.04
71772;BME280;59606;52.138;5.424;2022-12-07T10:02:56;101924.72;;;3.99;97.60
71772;BME280;59606;52.138;5.424;2022-12-07T10:05:27;101914.41;;;3.99;98.08
71772;BME280;59606;52.138;5.424;2022-12-07T10:07:56;101912.72;;;3.99;97.75
71772;BME280;59606;52.138;5.424;2022-12-07T10:10:26;101923.84;;;4.01;97.87
71772;BME280;59606;52.138;5.424;2022-12-07T10:13:02;101912.66;;;4.04;97.92
71772;BME280;59606;52.138;5.424;2022-12-07T10:20:48;101899.56;;;4.24;97.25
71772;BME280;59606;52.138;5.424;2022-12-07T10:23:17;101892.56;;;4.32;96.94
71772;BME280;59606;52.138;5.424;2022-12-07T10:25:44;101893.28;;;4.46;97.42
71772;BME280;59606;52.138;5.424;2022-12-07T10:28:13;101893.19;;;4.51;96.47
71772;BME280;59606;52.138;5.424;2022-12-07T10:33:59;101885.53;;;4.45;96.27
71772;BME280;59606;52.138;5.424;2022-12-07T10:36:34;101890.75;;;4.39;95.63
71772;BME280;59606;52.138;5.424;2022-12-07T10:42:02;101883.06;;;4.37;95.79
71772;BME280;59606;52.138;5.424;2022-12-07T10:44:33;101876.03;;;4.50;96.30
71772;BME280;59606;52.138;5.424;2022-12-07T10:52:57;101871.31;;;4.80;95.59
71772;BME280;59606;52.138;5.424;2022-12-07T10:55:40;101872.13;;;4.82;95.04
71772;BME280;59606;52.138;5.424;2022-12-07T11:01:11;101866.19;;;4.77;94.56
71772;BME280;59606;52.138;5.424;2022-12-07T11:15:04;101859.41;;;5.25;93.80
71772;BME280;59606;52.138;5.424;2022-12-07T11:37:21;101836.94;;;4.76;93.23
71772;BME280;59606;52.138;5.424;2022-12-07T11:39:54;101841.25;;;4.76;93.84
71772;BME280;59606;52.138;5.424;2022-12-07T11:42:25;101833.41;;;4.83;93.89
71772;BME280;59606;52.138;5.424;2022-12-07T11:44:57;101829.84;;;4.90;94.29
71772;BME280;59606;52.138;5.424;2022-12-07T11:47:45;101822.06;;;4.93;93.67
71772;BME280;59606;52.138;5.424;2022-12-07T11:55:49;101817.53;;;5.06;93.25
71772;BME280;59606;52.138;5.424;2022-12-07T11:58:40;101819.22;;;5.09;93.67
71772;BME280;59606;52.138;5.424;2022-12-07T12:06:44;101807.91;;;5.16;92.85
71772;BME280;59606;52.138;5.424;2022-12-07T12:12:37;101791.50;;;5.20;92.06
71772;BME280;59606;52.138;5.424;2022-12-07T12:15:49;101789.72;;;5.24;91.92
71772;BME280;59606;52.138;5.424;2022-12-07T12:18:29;101792.19;;;5.28;92.17
71772;BME280;59606;52.138;5.424;2022-12-07T12:21:04;101785.25;;;5.33;91.69
71772;BME280;59606;52.138;5.424;2022-12-07T12:23:43;101786.03;;;5.35;90.89
71772;BME280;59606;52.138;5.424;2022-12-07T12:26:20;101790.28;;;5.39;90.67
71772;BME280;59606;52.138;5.424;2022-12-07T12:28:59;101790.16;;;5.46;90.47
71772;BME280;59606;52.138;5.424;2022-12-07T12:33:59;101780.34;;;5.63;89.53
71772;BME280;59606;52.138;5.424;2022-12-07T12:46:55;101766.66;;;6.04;88.13
71772;BME280;59606;52.138;5.424;2022-12-07T12:52:01;101762.19;;;6.11;87.41
71772;BME280;59606;52.138;5.424;2022-12-07T12:57:34;101770.09;;;6.05;86.84
71772;BME280;59606;52.138;5.424;2022-12-07T13:00:16;101762.50;;;5.96;87.20
71772;BME280;59606;52.138;5.424;2022-12-07T13:02:52;101765.22;;;5.88;86.28
71772;BME280;59606;52.138;5.424;2022-12-07T13:05:25;101766.38;;;5.73;86.11
71772;BME280;59606;52.138;5.424;2022-12-07T13:07:56;101757.31;;;5.52;86.04
71772;BME280;59606;52.138;5.424;2022-12-07T13:26:20;101741.06;;;4.97;89.33
71772;BME280;59606;52.138;5.424;2022-12-07T13:31:35;101730.00;;;4.91;90.46
71772;BME280;59606;52.138;5.424;2022-12-07T13:34:05;101727.47;;;4.88;90.69
71772;BME280;59606;52.138;5.424;2022-12-07T13:36:38;101718.88;;;4.87;90.58
71772;BME280;59606;52.138;5.424;2022-12-07T13:41:43;101718.06;;;4.84;90.22
71772;BME280;59606;52.138;5.424;2022-12-07T13:44:17;101712.91;;;4.84;90.65
71772;BME280;59606;52.138;5.424;2022-12-07T13:47:06;101712.88;;;4.85;90.71
71772;BME280;59606;52.138;5.424;2022-12-07T13:49:46;101712.88;;;4.87;90.49
71772;BME280;59606;52.138;5.424;2022-12-07T13:52:24;101711.97;;;4.88;91.32
71772;BME280;59606;52.138;5.424;2022-12-07T13:55:11;101705.06;;;4.90;91.27
71772;BME280;59606;52.138;5.424;2022-12-07T13:57:40;101705.88;;;4.93;91.23
71772;BME280;59606;52.138;5.424;2022-12-07T14:00:16;101704.09;;;4.95;91.47
71772;BME280;59606;52.138;5.424;2022-12-07T14:02:59;101698.88;;;4.99;91.31
71772;BME280;59606;52.138;5.424;2022-12-07T14:05:40;101695.41;;;5.01;91.47
71772;BME280;59606;52.138;5.424;2022-12-07T14:10:39;101697.06;;;5.04;91.88
71772;BME280;59606;52.138;5.424;2022-12-07T14:13:40;101693.56;;;5.06;92.25
71772;BME280;59606;52.138;5.424;2022-12-07T14:18:51;101686.63;;;5.10;91.90
71772;BME280;59606;52.138;5.424;2022-12-07T14:21:20;101688.34;;;5.11;91.38
71772;BME280;59606;52.138;5.424;2022-12-07T14:24:09;101688.28;;;5.12;91.36
71772;BME280;59606;52.138;5.424;2022-12-07T14:26:37;101679.69;;;5.13;91.35
71772;BME280;59606;52.138;5.424;2022-12-07T14:31:49;101673.63;;;5.14;91.59
71772;BME280;59606;52.138;5.424;2022-12-07T14:34:15;101677.06;;;5.15;91.76
71772;BME280;59606;52.138;5.424;2022-12-07T14:36:42;101674.53;;;5.13;91.57
71772;BME280;59606;52.138;5.424;2022-12-07T14:39:08;101677.09;;;5.13;92.19
71772;BME280;59606;52.138;5.424;2022-12-07T14:41:38;101666.81;;;5.10;92.00
71772;BME280;59606;52.138;5.424;2022-12-07T14:44:19;101666.84;;;5.09;92.14
71772;BME280;59606;52.138;5.424;2022-12-07T14:46:51;101665.16;;;5.06;92.18
71772;BME280;59606;52.138;5.424;2022-12-07T14:49:38;101663.50;;;5.04;92.44
71772;BME280;59606;52.138;5.424;2022-12-07T14:52:06;101664.41;;;5.01;92.45
71772;BME280;59606;52.138;5.424;2022-12-07T14:54:57;101666.19;;;4.97;91.99
71772;BME280;59606;52.138;5.424;2022-12-07T14:57:23;101668.78;;;4.96;92.24
71772;BME280;59606;52.138;5.424;2022-12-07T14:59:50;101666.25;;;4.94;92.31
71772;BME280;59606;52.138;5.424;2022-12-07T15:02:16;101665.41;;;4.94;92.02
71772;BME280;59606;52.138;5.424;2022-12-07T15:04:43;101666.28;;;4.93;92.01
71772;BME280;59606;52.138;5.424;2022-12-07T15:07:18;101668.00;;;4.92;91.45
71772;BME280;59606;52.138;5.424;2022-12-07T15:09:46;101664.56;;;4.92;91.46
71772;BME280;59606;52.138;5.424;2022-12-07T15:12:13;101672.31;;;4.92;91.42
71772;BME280;59606;52.138;5.424;2022-12-07T15:14:39;101683.53;;;4.91;91.43
71772;BME280;59606;52.138;5.424;2022-12-07T15:17:06;101678.38;;;4.91;91.43
71772;BME280;59606;52.138;5.424;2022-12-07T15:19:48;101673.25;;;4.88;91.54
71772;BME280;59606;52.138;5.424;2022-12-07T15:22:15;101671.56;;;4.85;91.77
71772;BME280;59606;52.138;5.424;2022-12-07T15:24:41;101662.19;;;4.81;92.02
71772;BME280;59606;52.138;5.424;2022-12-07T15:27:08;101658.81;;;4.78;92.23
71772;BME280;59606;52.138;5.424;2022-12-07T15:29:34;101660.59;;;4.72;92.71
71772;BME280;59606;52.138;5.424;2022-12-07T15:32:01;101660.69;;;4.69;92.67
71772;BME280;59606;52.138;5.424;2022-12-07T15:34:27;101653.00;;;4.65;93.28